createdAt,value
2022-10-13T00:04:22.587Z,0.00
2022-10-13T00:19:22.704Z,0.00
2022-10-13T00:34:23.457Z,0.00
2022-10-13T00:49:23.937Z,0.00
2022-10-13T01:04:24.583Z,0.00
2022-10-13T01:19:24.179Z,0.00
2022-10-13T01:34:24.310Z,0.00
2022-10-13T01:49:24.989Z,0.00
2022-10-13T02:04:25.563Z,0.00
2022-10-13T02:19:25.723Z,0.00
2022-10-13T02:34:25.833Z,0.00
2022-10-13T02:49:26.416Z,0.00
2022-10-13T03:04:27.097Z,0.00
2022-10-13T03:19:27.141Z,0.00
2022-10-13T03:34:27.826Z,0.00
2022-10-13T03:49:28.427Z,0.00
2022-10-13T04:04:28.555Z,0.00
2022-10-13T04:19:28.654Z,0.00
2022-10-13T04:34:28.812Z,0.00
2022-10-13T04:49:29.386Z,0.00
2022-10-13T05:04:29.490Z,0.00
2022-10-13T05:19:29.087Z,0.00
2022-10-13T05:34:29.753Z,11.25
2022-10-13T05:49:30.830Z,33.75
2022-10-13T06:04:30.982Z,50.62
2022-10-13T06:19:31.564Z,78.75
2022-10-13T06:34:33.177Z,95.62
2022-10-13T06:49:32.793Z,129.38
2022-10-13T07:04:32.918Z,196.88
2022-10-13T07:19:32.994Z,382.50
2022-10-13T07:34:33.140Z,343.12
2022-10-13T07:49:33.235Z,646.88
2022-10-13T08:04:33.897Z,416.25
2022-10-13T08:19:34.461Z,534.38
2022-10-13T08:34:34.597Z,444.38
2022-10-13T08:49:34.715Z,551.25
2022-10-13T09:04:35.004Z,354.38
2022-10-13T09:19:35.374Z,393.75
2022-10-13T09:34:35.475Z,500.62
2022-10-13T09:49:35.089Z,1378.12
2022-10-13T10:04:35.236Z,928.12
2022-10-13T10:19:35.322Z,2508.75
2022-10-13T10:34:35.979Z,1940.62
2022-10-13T10:49:37.015Z,1777.50
2022-10-13T11:04:36.655Z,2368.12
2022-10-13T11:19:37.227Z,2041.88
2022-10-13T11:34:36.847Z,1856.25
2022-10-13T11:49:36.981Z,1378.12
2022-10-13T12:04:37.153Z,866.25
2022-10-13T12:19:37.685Z,1141.88
2022-10-13T12:34:37.805Z,1850.62
2022-10-13T12:49:37.428Z,1316.25
2022-10-13T13:04:37.997Z,866.25
2022-10-13T13:19:37.582Z,585.00
2022-10-13T13:34:37.707Z,472.50
2022-10-13T13:49:38.384Z,1951.88
2022-10-13T14:04:38.477Z,866.25
2022-10-13T14:19:39.465Z,1231.88
2022-10-13T14:34:39.922Z,3105.00
2022-10-13T14:49:40.027Z,2233.12
2022-10-13T15:04:40.657Z,315.00
2022-10-13T15:19:41.682Z,146.25
2022-10-13T15:34:41.363Z,67.50
2022-10-13T15:49:41.906Z,33.75
2022-10-13T16:04:42.105Z,16.88
2022-10-13T16:19:43.978Z,0.00
2022-10-13T16:34:44.551Z,0.00
2022-10-13T16:49:44.681Z,0.00
2022-10-13T17:04:45.231Z,0.00
2022-10-13T17:19:45.390Z,0.00
2022-10-13T17:34:45.946Z,0.00
2022-10-13T17:49:46.050Z,0.00
2022-10-13T18:04:45.731Z,0.00
2022-10-13T18:19:45.846Z,0.00
2022-10-13T18:34:47.748Z,0.00
2022-10-13T18:49:49.614Z,0.00
2022-10-13T19:04:50.196Z,0.00
2022-10-13T19:19:51.100Z,0.00
2022-10-13T19:34:53.055Z,0.00
2022-10-13T19:49:54.445Z,0.00
2022-10-13T20:04:54.669Z,0.00
2022-10-13T20:19:56.567Z,0.00
2022-10-13T20:34:57.427Z,0.00
2022-10-13T20:49:57.551Z,0.00
2022-10-13T21:04:57.675Z,0.00
2022-10-13T21:19:57.786Z,0.00
2022-10-13T21:34:58.016Z,0.00
2022-10-13T21:49:58.018Z,0.00
2022-10-13T22:04:58.126Z,0.00
2022-10-13T22:19:58.239Z,0.00
2022-10-13T22:34:59.648Z,0.00
2022-10-13T22:50:00.746Z,0.00
2022-10-13T23:05:00.377Z,0.00
2022-10-13T23:20:02.248Z,0.00
2022-10-13T23:35:01.844Z,0.00
2022-10-13T23:50:02.489Z,0.00
